sensor_id;sensor_type;location;lat;lon;timestamp;temperature;humidity
52509;DHT22;38420;53.150;6.370;2022-09-09T00:00:16;14.60;99.90
52509;DHT22;38420;53.150;6.370;2022-09-09T00:02:44;14.60;99.90
52509;DHT22;38420;53.150;6.370;2022-09-09T00:07:58;14.50;99.90
52509;DHT22;38420;53.150;6.370;2022-09-09T00:10:37;14.10;99.90
52509;DHT22;38420;53.150;6.370;2022-09-09T00:18:21;14.40;99.90
52509;DHT22;38420;53.150;6.370;2022-09-09T00:23:32;14.30;99.90
52509;DHT22;38420;53.150;6.370;2022-09-09T00:28:39;14.30;99.90
52509;DHT22;38420;53.150;6.370;2022-09-09T00:31:09;14.30;99.90
52509;DHT22;38420;53.150;6.370;2022-09-09T00:33:36;14.30;99.90
52509;DHT22;38420;53.150;6.370;2022-09-09T00:36:01;14.30;99.90
52509;DHT22;38420;53.150;6.370;2022-09-09T00:38:31;13.90;99.90
52509;DHT22;38420;53.150;6.370;2022-09-09T00:41:00;13.90;99.90
52509;DHT22;38420;53.150;6.370;2022-09-09T00:43:30;14.30;99.90
52509;DHT22;38420;53.150;6.370;2022-09-09T00:48:24;14.20;99.90
52509;DHT22;38420;53.150;6.370;2022-09-09T00:50:53;13.90;99.90
52509;DHT22;38420;53.150;6.370;2022-09-09T00:58:33;14.10;99.90
52509;DHT22;38420;53.150;6.370;2022-09-09T01:03:35;13.80;99.90
52509;DHT22;38420;53.150;6.370;2022-09-09T01:09:25;13.90;99.90
52509;DHT22;38420;53.150;6.370;2022-09-09T01:11:25;13.70;99.90
52509;DHT22;38420;53.150;6.370;2022-09-09T01:14:10;13.70;99.90
52509;DHT22;38420;53.150;6.370;2022-09-09T01:16:36;13.60;99.90
52509;DHT22;38420;53.150;6.370;2022-09-09T01:19:02;13.90;99.90
52509;DHT22;38420;53.150;6.370;2022-09-09T01:21:32;13.60;99.90
52509;DHT22;38420;53.150;6.370;2022-09-09T01:24:04;13.60;99.90
52509;DHT22;38420;53.150;6.370;2022-09-09T01:26:36;13.90;99.90
52509;DHT22;38420;53.150;6.370;2022-09-09T01:29:02;13.50;99.90
52509;DHT22;38420;53.150;6.370;2022-09-09T01:31:32;13.70;99.90
52509;DHT22;38420;53.150;6.370;2022-09-09T01:34:00;13.90;99.90
52509;DHT22;38420;53.150;6.370;2022-09-09T01:36:59;13.90;99.90
52509;DHT22;38420;53.150;6.370;2022-09-09T01:39:17;13.50;99.90
52509;DHT22;38420;53.150;6.370;2022-09-09T01:41:43;13.60;99.90
52509;DHT22;38420;53.150;6.370;2022-09-09T01:44:08;13.80;99.90
52509;DHT22;38420;53.150;6.370;2022-09-09T01:46:34;13.50;99.90
52509;DHT22;38420;53.150;6.370;2022-09-09T01:49:00;13.90;99.90
52509;DHT22;38420;53.150;6.370;2022-09-09T01:51:27;13.80;99.90
52509;DHT22;38420;53.150;6.370;2022-09-09T01:53:52;13.50;99.90
52509;DHT22;38420;53.150;6.370;2022-09-09T01:58:47;13.90;99.90
52509;DHT22;38420;53.150;6.370;2022-09-09T02:01:19;13.60;99.90
52509;DHT22;38420;53.150;6.370;2022-09-09T02:03:47;13.60;99.90
52509;DHT22;38420;53.150;6.370;2022-09-09T02:06:24;13.60;99.90
52509;DHT22;38420;53.150;6.370;2022-09-09T02:08:51;13.60;99.90
52509;DHT22;38420;53.150;6.370;2022-09-09T02:11:18;13.70;99.90
52509;DHT22;38420;53.150;6.370;2022-09-09T02:13:45;13.60;99.90
52509;DHT22;38420;53.150;6.370;2022-09-09T02:18:48;14.00;99.90
52509;DHT22;38420;53.150;6.370;2022-09-09T02:21:16;13.70;99.90
52509;DHT22;38420;53.150;6.370;2022-09-09T02:23:42;14.10;99.90
52509;DHT22;38420;53.150;6.370;2022-09-09T02:26:08;14.10;99.90
52509;DHT22;38420;53.150;6.370;2022-09-09T02:28:35;14.10;99.90
52509;DHT22;38420;53.150;6.370;2022-09-09T02:31:02;14.10;99.90
52509;DHT22;38420;53.150;6.370;2022-09-09T02:33:28;13.80;99.90
52509;DHT22;38420;53.150;6.370;2022-09-09T02:35:55;13.90;99.90
52509;DHT22;38420;53.150;6.370;2022-09-09T02:38:27;14.20;99.90
52509;DHT22;38420;53.150;6.370;2022-09-09T02:40:53;14.20;99.90
52509;DHT22;38420;53.150;6.370;2022-09-09T02:43:19;14.10;99.90
52509;DHT22;38420;53.150;6.370;2022-09-09T02:45:51;13.90;99.90
52509;DHT22;38420;53.150;6.370;2022-09-09T02:48:21;13.90;99.90
52509;DHT22;38420;53.150;6.370;2022-09-09T02:50:56;13.90;99.90
52509;DHT22;38420;53.150;6.370;2022-09-09T02:53:24;14.30;99.90
52509;DHT22;38420;53.150;6.370;2022-09-09T02:56:04;14.10;99.90
52509;DHT22;38420;53.150;6.370;2022-09-09T02:58:30;14.30;99.90
52509;DHT22;38420;53.150;6.370;2022-09-09T03:00:56;14.30;99.90
52509;DHT22;38420;53.150;6.370;2022-09-09T03:03:23;14.30;99.90
52509;DHT22;38420;53.150;6.370;2022-09-09T03:05:48;13.90;99.90
52509;DHT22;38420;53.150;6.370;2022-09-09T03:08:14;14.20;99.90
52509;DHT22;38420;53.150;6.370;2022-09-09T03:10:40;14.30;99.90
52509;DHT22;38420;53.150;6.370;2022-09-09T03:13:05;14.30;99.90
52509;DHT22;38420;53.150;6.370;2022-09-09T03:15:31;13.90;99.90
52509;DHT22;38420;53.150;6.370;2022-09-09T03:17:57;14.40;99.90
52509;DHT22;38420;53.150;6.370;2022-09-09T03:20:27;14.00;99.90
52509;DHT22;38420;53.150;6.370;2022-09-09T03:22:53;14.40;99.90
52509;DHT22;38420;53.150;6.370;2022-09-09T03:25:19;14.30;99.90
52509;DHT22;38420;53.150;6.370;2022-09-09T03:27:44;14.10;99.90
52509;DHT22;38420;53.150;6.370;2022-09-09T03:30:10;14.30;99.90
52509;DHT22;38420;53.150;6.370;2022-09-09T03:32:36;14.40;99.90
52509;DHT22;38420;53.150;6.370;2022-09-09T03:35:02;14.10;99.90
52509;DHT22;38420;53.150;6.370;2022-09-09T03:37:27;14.20;99.90
52509;DHT22;38420;53.150;6.370;2022-09-09T03:39:53;14.00;99.90
52509;DHT22;38420;53.150;6.370;2022-09-09T03:42:19;14.00;99.90
52509;DHT22;38420;53.150;6.370;2022-09-09T03:44:46;14.00;99.90
52509;DHT22;38420;53.150;6.370;2022-09-09T03:47:18;14.10;99.90
52509;DHT22;38420;53.150;6.370;2022-09-09T03:49:44;14.40;99.90
52509;DHT22;38420;53.150;6.370;2022-09-09T03:52:10;14.20;99.90
52509;DHT22;38420;53.150;6.370;2022-09-09T03:54:35;14.40;99.90
52509;DHT22;38420;53.150;6.370;2022-09-09T03:57:01;14.10;99.90
52509;DHT22;38420;53.150;6.370;2022-09-09T03:59:27;14.30;99.90
52509;DHT22;38420;53.150;6.370;2022-09-09T04:01:53;14.10;99.90
52509;DHT22;38420;53.150;6.370;2022-09-09T04:04:20;14.30;99.90
52509;DHT22;38420;53.150;6.370;2022-09-09T04:06:45;14.10;99.90
52509;DHT22;38420;53.150;6.370;2022-09-09T04:09:11;14.10;99.90
52509;DHT22;38420;53.150;6.370;2022-09-09T04:11:36;14.10;99.90
52509;DHT22;38420;53.150;6.370;2022-09-09T04:14:02;14.10;99.90
52509;DHT22;38420;53.150;6.370;2022-09-09T04:16:29;14.20;99.90
52509;DHT22;38420;53.150;6.370;2022-09-09T04:18:54;14.20;99.90
52509;DHT22;38420;53.150;6.370;2022-09-09T04:21:21;14.10;99.90
52509;DHT22;38420;53.150;6.370;2022-09-09T04:23:46;14.30;99.90
52509;DHT22;38420;53.150;6.370;2022-09-09T04:26:12;14.10;99.90
52509;DHT22;38420;53.150;6.370;2022-09-09T04:28:37;14.40;99.90
52509;DHT22;38420;53.150;6.370;2022-09-09T04:31:04;14.50;99.90
52509;DHT22;38420;53.150;6.370;2022-09-09T04:33:29;14.20;99.90
52509;DHT22;38420;53.150;6.370;2022-09-09T04:35:56;14.50;99.90
52509;DHT22;38420;53.150;6.370;2022-09-09T04:38:22;14.30;99.90
52509;DHT22;38420;53.150;6.370;2022-09-09T04:40:48;14.20;99.90
52509;DHT22;38420;53.150;6.370;2022-09-09T04:43:14;14.50;99.90
52509;DHT22;38420;53.150;6.370;2022-09-09T04:45:40;14.50;99.90
52509;DHT22;38420;53.150;6.370;2022-09-09T04:48:06;14.60;99.90
52509;DHT22;38420;53.150;6.370;2022-09-09T04:50:32;14.50;99.90
52509;DHT22;38420;53.150;6.370;2022-09-09T04:53:03;14.50;99.90
52509;DHT22;38420;53.150;6.370;2022-09-09T04:55:30;14.50;99.90
52509;DHT22;38420;53.150;6.370;2022-09-09T04:57:55;14.30;99.90
52509;DHT22;38420;53.150;6.370;2022-09-09T05:00:23;14.60;99.90
52509;DHT22;38420;53.150;6.370;2022-09-09T05:02:48;14.60;99.90
52509;DHT22;38420;53.150;6.370;2022-09-09T05:05:14;14.60;99.90
52509;DHT22;38420;53.150;6.370;2022-09-09T05:07:39;14.50;99.90
52509;DHT22;38420;53.150;6.370;2022-09-09T05:10:05;14.20;99.90
52509;DHT22;38420;53.150;6.370;2022-09-09T05:12:31;14.30;99.90
52509;DHT22;38420;53.150;6.370;2022-09-09T05:14:57;14.50;99.90
52509;DHT22;38420;53.150;6.370;2022-09-09T05:17:23;14.60;99.90
52509;DHT22;38420;53.150;6.370;2022-09-09T05:19:48;14.40;99.90
52509;DHT22;38420;53.150;6.370;2022-09-09T05:22:18;14.60;99.90
52509;DHT22;38420;53.150;6.370;2022-09-09T05:24:43;14.60;99.90
52509;DHT22;38420;53.150;6.370;2022-09-09T05:27:09;14.20;99.90
52509;DHT22;38420;53.150;6.370;2022-09-09T05:29:37;14.30;99.90
52509;DHT22;38420;53.150;6.370;2022-09-09T05:32:03;14.50;99.90
52509;DHT22;38420;53.150;6.370;2022-09-09T05:34:29;14.50;99.90
52509;DHT22;38420;53.150;6.370;2022-09-09T05:36:54;14.50;99.90
52509;DHT22;38420;53.150;6.370;2022-09-09T05:39:20;14.40;99.90
52509;DHT22;38420;53.150;6.370;2022-09-09T05:41:46;14.50;99.90
52509;DHT22;38420;53.150;6.370;2022-09-09T05:44:11;14.20;99.90
52509;DHT22;38420;53.150;6.370;2022-09-09T05:46:36;14.40;99.90
52509;DHT22;38420;53.150;6.370;2022-09-09T05:49:03;14.20;99.90
52509;DHT22;38420;53.150;6.370;2022-09-09T05:51:28;14.30;99.90
52509;DHT22;38420;53.150;6.370;2022-09-09T05:53:55;14.20;99.90
52509;DHT22;38420;53.150;6.370;2022-09-09T05:56:24;14.20;99.90
52509;DHT22;38420;53.150;6.370;2022-09-09T05:58:53;14.20;99.90
52509;DHT22;38420;53.150;6.370;2022-09-09T06:01:20;14.60;99.90
52509;DHT22;38420;53.150;6.370;2022-09-09T06:03:46;14.40;99.90
52509;DHT22;38420;53.150;6.370;2022-09-09T06:06:16;14.30;99.90
52509;DHT22;38420;53.150;6.370;2022-09-09T06:08:43;14.60;99.90
52509;DHT22;38420;53.150;6.370;2022-09-09T06:11:13;14.60;99.90
52509;DHT22;38420;53.150;6.370;2022-09-09T06:13:39;14.20;99.90
52509;DHT22;38420;53.150;6.370;2022-09-09T06:16:05;14.40;99.90
52509;DHT22;38420;53.150;6.370;2022-09-09T06:18:32;14.60;99.90
52509;DHT22;38420;53.150;6.370;2022-09-09T06:20:59;14.80;99.90
52509;DHT22;38420;53.150;6.370;2022-09-09T06:23:26;14.50;99.90
52509;DHT22;38420;53.150;6.370;2022-09-09T06:25:52;14.40;99.90
52509;DHT22;38420;53.150;6.370;2022-09-09T06:28:25;14.30;99.90
52509;DHT22;38420;53.150;6.370;2022-09-09T06:30:56;14.30;99.90
52509;DHT22;38420;53.150;6.370;2022-09-09T06:33:22;14.60;99.90
52509;DHT22;38420;53.150;6.370;2022-09-09T06:35:51;14.60;99.90
52509;DHT22;38420;53.150;6.370;2022-09-09T06:38:17;14.40;99.90
52509;DHT22;38420;53.150;6.370;2022-09-09T06:40:50;14.40;99.90
52509;DHT22;38420;53.150;6.370;2022-09-09T06:43:16;14.60;99.90
52509;DHT22;38420;53.150;6.370;2022-09-09T06:45:42;14.70;99.90
52509;DHT22;38420;53.150;6.370;2022-09-09T06:48:07;14.40;99.90
52509;DHT22;38420;53.150;6.370;2022-09-09T06:50:34;14.80;99.90
52509;DHT22;38420;53.150;6.370;2022-09-09T06:53:00;14.40;99.90
52509;DHT22;38420;53.150;6.370;2022-09-09T06:55:25;14.40;99.90
52509;DHT22;38420;53.150;6.370;2022-09-09T06:57:51;14.60;99.90
52509;DHT22;38420;53.150;6.370;2022-09-09T07:00:17;14.80;99.90
52509;DHT22;38420;53.150;6.370;2022-09-09T07:02:43;14.40;99.90
52509;DHT22;38420;53.150;6.370;2022-09-09T07:05:10;14.90;99.90
52509;DHT22;38420;53.150;6.370;2022-09-09T07:07:36;14.80;99.90
52509;DHT22;38420;53.150;6.370;2022-09-09T07:10:02;14.50;99.90
52509;DHT22;38420;53.150;6.370;2022-09-09T07:12:29;14.40;99.90
52509;DHT22;38420;53.150;6.370;2022-09-09T07:14:54;14.60;99.90
52509;DHT22;38420;53.150;6.370;2022-09-09T07:17:20;14.50;99.90
52509;DHT22;38420;53.150;6.370;2022-09-09T07:19:45;14.60;99.90
52509;DHT22;38420;53.150;6.370;2022-09-09T07:22:11;14.50;99.90
52509;DHT22;38420;53.150;6.370;2022-09-09T07:24:36;15.00;99.90
52509;DHT22;38420;53.150;6.370;2022-09-09T07:27:02;14.80;99.90
52509;DHT22;38420;53.150;6.370;2022-09-09T07:29:28;15.10;99.90
52509;DHT22;38420;53.150;6.370;2022-09-09T07:31:54;15.00;99.90
52509;DHT22;38420;53.150;6.370;2022-09-09T07:34:19;15.10;99.90
52509;DHT22;38420;53.150;6.370;2022-09-09T07:36:45;14.80;99.90
52509;DHT22;38420;53.150;6.370;2022-09-09T07:39:12;15.10;99.90
52509;DHT22;38420;53.150;6.370;2022-09-09T07:44:07;15.00;99.90
52509;DHT22;38420;53.150;6.370;2022-09-09T07:46:34;15.00;99.90
52509;DHT22;38420;53.150;6.370;2022-09-09T07:49:00;15.20;99.90
52509;DHT22;38420;53.150;6.370;2022-09-09T07:51:30;15.10;99.90
52509;DHT22;38420;53.150;6.370;2022-09-09T07:53:57;15.40;99.90
52509;DHT22;38420;53.150;6.370;2022-09-09T07:56:23;15.60;99.90
52509;DHT22;38420;53.150;6.370;2022-09-09T07:58:49;15.60;99.90
52509;DHT22;38420;53.150;6.370;2022-09-09T08:01:16;15.20;99.90
52509;DHT22;38420;53.150;6.370;2022-09-09T08:03:43;15.50;99.90
52509;DHT22;38420;53.150;6.370;2022-09-09T08:06:10;15.50;99.90
52509;DHT22;38420;53.150;6.370;2022-09-09T08:08:35;15.40;99.90
52509;DHT22;38420;53.150;6.370;2022-09-09T08:11:05;15.80;99.90
52509;DHT22;38420;53.150;6.370;2022-09-09T08:13:33;15.70;99.90
52509;DHT22;38420;53.150;6.370;2022-09-09T08:16:09;15.80;99.90
52509;DHT22;38420;53.150;6.370;2022-09-09T08:18:35;16.00;99.90
52509;DHT22;38420;53.150;6.370;2022-09-09T08:23:32;15.70;99.90
52509;DHT22;38420;53.150;6.370;2022-09-09T08:26:04;16.30;99.90
52509;DHT22;38420;53.150;6.370;2022-09-09T08:28:30;16.40;99.90
52509;DHT22;38420;53.150;6.370;2022-09-09T08:31:04;16.30;99.90
52509;DHT22;38420;53.150;6.370;2022-09-09T08:33:30;16.50;99.90
52509;DHT22;38420;53.150;6.370;2022-09-09T08:35:55;16.80;99.90
52509;DHT22;38420;53.150;6.370;2022-09-09T08:38:21;16.70;99.90
52509;DHT22;38420;53.150;6.370;2022-09-09T08:40:46;17.00;99.90
52509;DHT22;38420;53.150;6.370;2022-09-09T08:43:15;17.60;99.90
52509;DHT22;38420;53.150;6.370;2022-09-09T08:45:50;17.90;99.90
52509;DHT22;38420;53.150;6.370;2022-09-09T08:50:50;18.80;99.90
52509;DHT22;38420;53.150;6.370;2022-09-09T08:53:17;19.40;99.90
52509;DHT22;38420;53.150;6.370;2022-09-09T09:03:15;20.60;99.90
52509;DHT22;38420;53.150;6.370;2022-09-09T09:05:56;20.80;99.90
52509;DHT22;38420;53.150;6.370;2022-09-09T09:08:27;20.70;99.90
52509;DHT22;38420;53.150;6.370;2022-09-09T09:10:56;20.40;99.90
52509;DHT22;38420;53.150;6.370;2022-09-09T09:13:25;20.00;99.90
52509;DHT22;38420;53.150;6.370;2022-09-09T09:15:54;19.90;99.90
52509;DHT22;38420;53.150;6.370;2022-09-09T09:18:22;20.00;99.90
52509;DHT22;38420;53.150;6.370;2022-09-09T09:21:11;20.10;99.90
52509;DHT22;38420;53.150;6.370;2022-09-09T09:23:43;20.10;99.90
52509;DHT22;38420;53.150;6.370;2022-09-09T09:26:10;19.90;99.90
52509;DHT22;38420;53.150;6.370;2022-09-09T09:28:38;19.70;99.90
52509;DHT22;38420;53.150;6.370;2022-09-09T09:33:52;19.20;99.90
52509;DHT22;38420;53.150;6.370;2022-09-09T09:36:18;19.10;99.90
52509;DHT22;38420;53.150;6.370;2022-09-09T09:38:57;19.10;99.90
52509;DHT22;38420;53.150;6.370;2022-09-09T09:41:30;19.10;99.90
52509;DHT22;38420;53.150;6.370;2022-09-09T09:43:55;19.20;99.90
52509;DHT22;38420;53.150;6.370;2022-09-09T09:46:22;19.00;99.90
52509;DHT22;38420;53.150;6.370;2022-09-09T09:49:02;18.90;99.90
52509;DHT22;38420;53.150;6.370;2022-09-09T09:51:29;18.70;99.90
52509;DHT22;38420;53.150;6.370;2022-09-09T09:54:02;18.60;99.90
52509;DHT22;38420;53.150;6.370;2022-09-09T09:56:30;18.40;99.90
52509;DHT22;38420;53.150;6.370;2022-09-09T09:58:57;18.40;99.90
52509;DHT22;38420;53.150;6.370;2022-09-09T10:04:12;18.30;99.90
52509;DHT22;38420;53.150;6.370;2022-09-09T10:06:38;18.20;99.90
52509;DHT22;38420;53.150;6.370;2022-09-09T10:09:20;18.20;99.90
52509;DHT22;38420;53.150;6.370;2022-09-09T10:11:49;18.10;99.90
52509;DHT22;38420;53.150;6.370;2022-09-09T10:14:26;18.20;99.90
52509;DHT22;38420;53.150;6.370;2022-09-09T10:19:34;18.30;99.90
52509;DHT22;38420;53.150;6.370;2022-09-09T10:24:32;18.20;99.90
52509;DHT22;38420;53.150;6.370;2022-09-09T10:29:47;18.30;99.90
52509;DHT22;38420;53.150;6.370;2022-09-09T10:35:08;18.20;99.90
52509;DHT22;38420;53.150;6.370;2022-09-09T10:42:42;18.80;99.90
52509;DHT22;38420;53.150;6.370;2022-09-09T10:45:15;18.80;99.90
52509;DHT22;38420;53.150;6.370;2022-09-09T10:50:29;18.80;99.90
52509;DHT22;38420;53.150;6.370;2022-09-09T10:53:08;19.00;99.90
52509;DHT22;38420;53.150;6.370;2022-09-09T10:55:43;19.10;99.90
52509;DHT22;38420;53.150;6.370;2022-09-09T10:58:14;19.20;99.90
52509;DHT22;38420;53.150;6.370;2022-09-09T11:00:42;19.30;99.90
52509;DHT22;38420;53.150;6.370;2022-09-09T11:03:20;19.40;99.90
52509;DHT22;38420;53.150;6.370;2022-09-09T11:05:48;19.50;99.90
52509;DHT22;38420;53.150;6.370;2022-09-09T11:08:21;19.50;99.90
52509;DHT22;38420;53.150;6.370;2022-09-09T11:10:50;19.50;99.90
52509;DHT22;38420;53.150;6.370;2022-09-09T11:13:19;19.60;99.90
52509;DHT22;38420;53.150;6.370;2022-09-09T11:15:52;19.80;99.90
52509;DHT22;38420;53.150;6.370;2022-09-09T11:18:19;19.90;99.90
52509;DHT22;38420;53.150;6.370;2022-09-09T11:20:58;19.90;99.90
52509;DHT22;38420;53.150;6.370;2022-09-09T11:23:26;20.10;99.90
52509;DHT22;38420;53.150;6.370;2022-09-09T11:25:57;20.00;99.90
52509;DHT22;38420;53.150;6.370;2022-09-09T11:28:28;20.00;99.90
52509;DHT22;38420;53.150;6.370;2022-09-09T11:31:10;20.00;99.90
52509;DHT22;38420;53.150;6.370;2022-09-09T11:41:49;19.80;99.90
52509;DHT22;38420;53.150;6.370;2022-09-09T11:44:19;19.70;99.90
52509;DHT22;38420;53.150;6.370;2022-09-09T11:46:50;19.70;99.90
52509;DHT22;38420;53.150;6.370;2022-09-09T11:49:26;20.00;99.90
52509;DHT22;38420;53.150;6.370;2022-09-09T11:51:53;19.90;99.90
52509;DHT22;38420;53.150;6.370;2022-09-09T11:54:33;19.90;99.90
52509;DHT22;38420;53.150;6.370;2022-09-09T11:57:04;19.90;99.90
52509;DHT22;38420;53.150;6.370;2022-09-09T11:59:31;19.90;99.90
52509;DHT22;38420;53.150;6.370;2022-09-09T12:01:58;19.90;99.90
52509;DHT22;38420;53.150;6.370;2022-09-09T12:09:27;19.90;99.90
52509;DHT22;38420;53.150;6.370;2022-09-09T12:14:43;20.00;99.90
52509;DHT22;38420;53.150;6.370;2022-09-09T12:17:10;19.80;99.90
52509;DHT22;38420;53.150;6.370;2022-09-09T12:19:35;19.80;99.90
52509;DHT22;38420;53.150;6.370;2022-09-09T12:22:06;19.70;99.90
52509;DHT22;38420;53.150;6.370;2022-09-09T12:24:42;19.60;99.90
52509;DHT22;38420;53.150;6.370;2022-09-09T12:29:50;19.50;99.90
52509;DHT22;38420;53.150;6.370;2022-09-09T12:32:21;19.60;99.90
52509;DHT22;38420;53.150;6.370;2022-09-09T12:34:47;19.70;99.90
52509;DHT22;38420;53.150;6.370;2022-09-09T12:39:58;19.90;99.90
52509;DHT22;38420;53.150;6.370;2022-09-09T12:42:24;19.90;99.90
52509;DHT22;38420;53.150;6.370;2022-09-09T12:44:51;19.90;99.90
52509;DHT22;38420;53.150;6.370;2022-09-09T12:47:17;20.00;99.90
52509;DHT22;38420;53.150;6.370;2022-09-09T12:49:43;20.10;99.90
52509;DHT22;38420;53.150;6.370;2022-09-09T12:52:14;20.30;99.90
52509;DHT22;38420;53.150;6.370;2022-09-09T12:54:43;20.00;99.90
52509;DHT22;38420;53.150;6.370;2022-09-09T12:57:11;19.90;99.90
52509;DHT22;38420;53.150;6.370;2022-09-09T12:59:38;19.90;99.90
52509;DHT22;38420;53.150;6.370;2022-09-09T13:04:41;20.00;99.90
52509;DHT22;38420;53.150;6.370;2022-09-09T13:07:07;20.20;99.90
52509;DHT22;38420;53.150;6.370;2022-09-09T13:09:35;20.40;99.90
52509;DHT22;38420;53.150;6.370;2022-09-09T13:12:00;20.30;99.90
52509;DHT22;38420;53.150;6.370;2022-09-09T13:14:29;20.30;99.90
52509;DHT22;38420;53.150;6.370;2022-09-09T13:16:58;20.40;99.90
52509;DHT22;38420;53.150;6.370;2022-09-09T13:19:24;20.30;99.90
52509;DHT22;38420;53.150;6.370;2022-09-09T13:21:53;20.20;99.90
52509;DHT22;38420;53.150;6.370;2022-09-09T13:24:26;20.20;99.90
52509;DHT22;38420;53.150;6.370;2022-09-09T13:26:55;20.10;99.90
52509;DHT22;38420;53.150;6.370;2022-09-09T13:29:21;20.10;99.90
52509;DHT22;38420;53.150;6.370;2022-09-09T13:31:53;20.00;99.90
52509;DHT22;38420;53.150;6.370;2022-09-09T13:36:54;19.90;99.90
52509;DHT22;38420;53.150;6.370;2022-09-09T13:39:21;19.80;99.90
52509;DHT22;38420;53.150;6.370;2022-09-09T13:41:47;19.70;99.90
52509;DHT22;38420;53.150;6.370;2022-09-09T13:44:14;19.60;99.90
52509;DHT22;38420;53.150;6.370;2022-09-09T13:46:42;19.50;99.90
52509;DHT22;38420;53.150;6.370;2022-09-09T13:51:38;19.20;99.90
52509;DHT22;38420;53.150;6.370;2022-09-09T13:54:04;19.20;99.90
52509;DHT22;38420;53.150;6.370;2022-09-09T13:56:32;19.10;99.90
52509;DHT22;38420;53.150;6.370;2022-09-09T13:58:57;19.20;99.90
52509;DHT22;38420;53.150;6.370;2022-09-09T14:01:23;19.20;99.90
52509;DHT22;38420;53.150;6.370;2022-09-09T14:03:49;19.10;99.90
52509;DHT22;38420;53.150;6.370;2022-09-09T14:06:14;19.00;99.90
52509;DHT22;38420;53.150;6.370;2022-09-09T14:08:40;19.20;99.90
52509;DHT22;38420;53.150;6.370;2022-09-09T14:11:05;19.30;99.90
52509;DHT22;38420;53.150;6.370;2022-09-09T14:13:31;19.20;99.90
52509;DHT22;38420;53.150;6.370;2022-09-09T14:15:57;19.20;99.90
52509;DHT22;38420;53.150;6.370;2022-09-09T14:18:23;19.20;99.90
52509;DHT22;38420;53.150;6.370;2022-09-09T14:20:50;19.10;99.90
52509;DHT22;38420;53.150;6.370;2022-09-09T14:23:16;19.10;99.90
52509;DHT22;38420;53.150;6.370;2022-09-09T14:25:44;18.90;99.90
52509;DHT22;38420;53.150;6.370;2022-09-09T14:28:11;18.80;99.90
52509;DHT22;38420;53.150;6.370;2022-09-09T14:30:37;18.80;99.90
52509;DHT22;38420;53.150;6.370;2022-09-09T14:33:03;18.60;99.90
52509;DHT22;38420;53.150;6.370;2022-09-09T14:35:29;18.40;99.90
52509;DHT22;38420;53.150;6.370;2022-09-09T14:37:54;18.20;99.90
52509;DHT22;38420;53.150;6.370;2022-09-09T14:40:21;18.10;99.90
52509;DHT22;38420;53.150;6.370;2022-09-09T14:42:47;18.10;99.90
52509;DHT22;38420;53.150;6.370;2022-09-09T14:45:12;18.20;99.90
52509;DHT22;38420;53.150;6.370;2022-09-09T14:47:38;18.20;99.90
52509;DHT22;38420;53.150;6.370;2022-09-09T14:50:04;18.50;99.90
52509;DHT22;38420;53.150;6.370;2022-09-09T14:52:30;18.50;99.90
52509;DHT22;38420;53.150;6.370;2022-09-09T14:54:55;18.80;99.90
52509;DHT22;38420;53.150;6.370;2022-09-09T14:57:21;18.90;99.90
52509;DHT22;38420;53.150;6.370;2022-09-09T14:59:46;19.10;99.90
52509;DHT22;38420;53.150;6.370;2022-09-09T15:02:12;19.10;99.90
52509;DHT22;38420;53.150;6.370;2022-09-09T15:04:39;19.30;99.90
52509;DHT22;38420;53.150;6.370;2022-09-09T15:07:04;19.50;99.90
52509;DHT22;38420;53.150;6.370;2022-09-09T15:09:30;19.50;99.90
52509;DHT22;38420;53.150;6.370;2022-09-09T15:11:55;19.50;99.90
52509;DHT22;38420;53.150;6.370;2022-09-09T15:14:21;19.40;99.90
52509;DHT22;38420;53.150;6.370;2022-09-09T15:16:46;19.30;99.90
52509;DHT22;38420;53.150;6.370;2022-09-09T15:19:12;19.40;99.90
52509;DHT22;38420;53.150;6.370;2022-09-09T15:21:37;19.10;99.90
52509;DHT22;38420;53.150;6.370;2022-09-09T15:24:03;19.00;99.90
52509;DHT22;38420;53.150;6.370;2022-09-09T15:26:31;19.00;99.90
52509;DHT22;38420;53.150;6.370;2022-09-09T15:28:57;19.00;99.90
52509;DHT22;38420;53.150;6.370;2022-09-09T15:31:25;19.00;99.90
52509;DHT22;38420;53.150;6.370;2022-09-09T15:33:52;19.00;99.90
52509;DHT22;38420;53.150;6.370;2022-09-09T15:36:24;19.10;99.90
52509;DHT22;38420;53.150;6.370;2022-09-09T15:38:50;19.00;99.90
52509;DHT22;38420;53.150;6.370;2022-09-09T15:41:17;19.00;99.90
52509;DHT22;38420;53.150;6.370;2022-09-09T15:43:43;19.10;99.90
52509;DHT22;38420;53.150;6.370;2022-09-09T15:48:44;19.00;99.90
52509;DHT22;38420;53.150;6.370;2022-09-09T15:51:10;19.00;99.90
52509;DHT22;38420;53.150;6.370;2022-09-09T15:53:39;18.90;99.90
52509;DHT22;38420;53.150;6.370;2022-09-09T15:56:05;18.90;99.90
52509;DHT22;38420;53.150;6.370;2022-09-09T15:58:35;18.70;99.90
52509;DHT22;38420;53.150;6.370;2022-09-09T16:01:02;18.60;99.90
52509;DHT22;38420;53.150;6.370;2022-09-09T16:03:30;18.30;99.90
52509;DHT22;38420;53.150;6.370;2022-09-09T16:05:55;18.10;99.90
52509;DHT22;38420;53.150;6.370;2022-09-09T16:08:21;17.90;99.90
52509;DHT22;38420;53.150;6.370;2022-09-09T16:10:46;17.70;99.90
52509;DHT22;38420;53.150;6.370;2022-09-09T16:13:12;17.70;99.90
52509;DHT22;38420;53.150;6.370;2022-09-09T16:15:39;17.50;99.90
52509;DHT22;38420;53.150;6.370;2022-09-09T16:18:04;17.40;99.90
52509;DHT22;38420;53.150;6.370;2022-09-09T16:20:30;17.50;99.90
52509;DHT22;38420;53.150;6.370;2022-09-09T16:22:55;17.50;99.90
52509;DHT22;38420;53.150;6.370;2022-09-09T16:25:22;17.40;99.90
52509;DHT22;38420;53.150;6.370;2022-09-09T16:27:48;17.30;99.90
52509;DHT22;38420;53.150;6.370;2022-09-09T16:30:13;17.10;99.90
52509;DHT22;38420;53.150;6.370;2022-09-09T16:32:38;17.10;99.90
52509;DHT22;38420;53.150;6.370;2022-09-09T16:35:04;17.20;99.90
52509;DHT22;38420;53.150;6.370;2022-09-09T16:37:30;17.20;99.90
52509;DHT22;38420;53.150;6.370;2022-09-09T16:39:59;17.10;99.90
52509;DHT22;38420;53.150;6.370;2022-09-09T16:42:24;17.30;99.90
52509;DHT22;38420;53.150;6.370;2022-09-09T16:44:50;17.30;99.90
52509;DHT22;38420;53.150;6.370;2022-09-09T16:47:15;17.40;99.90
52509;DHT22;38420;53.150;6.370;2022-09-09T16:49:41;17.30;99.90
52509;DHT22;38420;53.150;6.370;2022-09-09T16:52:06;17.00;99.90
52509;DHT22;38420;53.150;6.370;2022-09-09T16:54:31;17.00;99.90
52509;DHT22;38420;53.150;6.370;2022-09-09T16:56:57;17.20;99.90
52509;DHT22;38420;53.150;6.370;2022-09-09T16:59:24;17.20;99.90
52509;DHT22;38420;53.150;6.370;2022-09-09T17:01:50;16.80;99.90
52509;DHT22;38420;53.150;6.370;2022-09-09T17:04:17;16.80;99.90
52509;DHT22;38420;53.150;6.370;2022-09-09T17:06:49;17.00;99.90
52509;DHT22;38420;53.150;6.370;2022-09-09T17:09:15;16.80;99.90
52509;DHT22;38420;53.150;6.370;2022-09-09T17:11:40;16.90;99.90
52509;DHT22;38420;53.150;6.370;2022-09-09T17:14:07;16.90;99.90